createdAt,value
2022-11-15T00:02:13.440Z,41.97
2022-11-15T00:05:21.318Z,44.03
2022-11-15T00:08:23.635Z,48.42
2022-11-15T00:11:30.093Z,46.03
2022-11-15T00:14:36.985Z,43.83
2022-11-15T00:17:43.964Z,46.55
2022-11-15T00:20:52.149Z,44.83
2022-11-15T00:23:52.395Z,43.35
2022-11-15T00:26:59.985Z,44.85
2022-11-15T00:30:00.398Z,45.95
2022-11-15T00:33:12.008Z,43.63
2022-11-15T00:36:17.447Z,52.63
2022-11-15T00:39:26.089Z,50.67
2022-11-15T00:42:33.075Z,51.95
2022-11-15T00:45:34.487Z,54.20
2022-11-15T00:48:41.093Z,55.53
2022-11-15T00:51:41.265Z,57.13
2022-11-15T00:54:48.059Z,61.00
2022-11-15T00:57:49.331Z,63.63
2022-11-15T01:00:56.161Z,63.67
2022-11-15T01:04:01.102Z,63.55
2022-11-15T01:07:08.111Z,63.03
2022-11-15T01:10:08.980Z,70.25
2022-11-15T01:13:16.112Z,66.80
2022-11-15T01:16:20.509Z,67.28
2022-11-15T01:19:27.075Z,75.32
2022-11-15T01:22:27.318Z,71.80
2022-11-15T01:25:35.007Z,79.10
2022-11-15T01:28:44.109Z,72.00
2022-11-15T01:31:45.374Z,78.13
2022-11-15T01:34:51.998Z,85.22
2022-11-15T01:37:53.041Z,80.75
2022-11-15T01:41:01.083Z,72.05
2022-11-15T01:44:21.446Z,76.40
2022-11-15T01:47:38.062Z,70.85
2022-11-15T01:50:41.364Z,67.88
2022-11-15T01:53:52.098Z,71.07
2022-11-15T01:57:05.533Z,63.35
2022-11-15T02:00:14.060Z,71.88
2022-11-15T02:03:22.054Z,65.28
2022-11-15T02:06:31.052Z,57.65
2022-11-15T02:09:38.061Z,61.03
2022-11-15T02:12:40.482Z,57.22
2022-11-15T02:16:02.843Z,60.70
2022-11-15T02:19:42.069Z,70.85
2022-11-15T02:23:16.340Z,74.35
2022-11-15T02:26:58.126Z,77.53
2022-11-15T02:30:38.052Z,81.85
2022-11-15T02:33:58.064Z,74.60
2022-11-15T02:37:25.076Z,74.07
2022-11-15T02:40:56.985Z,76.32
2022-11-15T02:44:06.263Z,77.88
2022-11-15T02:47:23.064Z,78.25
2022-11-15T02:50:27.410Z,77.15
2022-11-15T02:56:35.612Z,76.57
2022-11-15T03:00:01.071Z,84.30
2022-11-15T03:03:26.124Z,75.90
2022-11-15T03:06:57.111Z,74.28
2022-11-15T03:10:15.057Z,71.32
2022-11-15T03:13:35.362Z,69.65
2022-11-15T03:17:11.045Z,75.53
2022-11-15T03:20:22.162Z,67.07
2022-11-15T03:23:30.270Z,65.93
2022-11-15T03:26:34.522Z,75.53
2022-11-15T03:29:51.052Z,67.15
2022-11-15T03:33:08.069Z,61.78
2022-11-15T03:36:08.566Z,205.52
2022-11-15T03:39:21.067Z,72.05
2022-11-15T03:42:36.040Z,67.78
2022-11-15T03:45:51.070Z,70.57
2022-11-15T03:48:59.293Z,66.43
2022-11-15T03:52:07.050Z,58.10
2022-11-15T03:55:20.001Z,68.88
2022-11-15T03:58:27.076Z,59.22
2022-11-15T04:01:34.151Z,72.13
2022-11-15T04:04:34.482Z,70.80
2022-11-15T04:07:41.054Z,61.15
2022-11-15T04:10:41.332Z,72.07
2022-11-15T04:13:49.039Z,68.78
2022-11-15T04:16:56.039Z,82.85
2022-11-15T04:20:27.904Z,76.45
2022-11-15T04:23:53.040Z,85.57
2022-11-15T04:26:53.792Z,70.75
2022-11-15T04:30:01.045Z,71.13
2022-11-15T04:33:01.428Z,63.22
2022-11-15T04:36:27.047Z,70.38
2022-11-15T04:39:34.049Z,68.35
2022-11-15T04:42:34.334Z,67.75
2022-11-15T04:45:41.069Z,81.60
2022-11-15T04:48:42.414Z,70.93
2022-11-15T04:51:49.046Z,67.68
2022-11-15T04:54:49.386Z,60.90
2022-11-15T04:57:56.058Z,60.35
2022-11-15T05:01:03.157Z,64.55
2022-11-15T05:04:21.553Z,59.53
2022-11-15T05:07:28.973Z,55.85
2022-11-15T05:10:37.057Z,56.35
2022-11-15T05:13:38.262Z,46.58
2022-11-15T05:16:45.033Z,54.20
2022-11-15T05:20:00.970Z,60.63
2022-11-15T05:23:08.045Z,47.90
2022-11-15T05:26:09.596Z,51.08
2022-11-15T05:29:19.958Z,48.85
2022-11-15T05:32:21.315Z,49.15
2022-11-15T05:35:50.979Z,45.92
2022-11-15T05:38:59.053Z,47.25
2022-11-15T05:42:07.043Z,45.55
2022-11-15T05:45:15.972Z,47.20
2022-11-15T05:48:17.053Z,39.70
2022-11-15T05:51:24.979Z,35.53
2022-11-15T05:54:25.719Z,34.88
2022-11-15T05:57:34.060Z,36.90
2022-11-15T06:00:34.687Z,42.17
2022-11-15T06:03:42.042Z,33.60
2022-11-15T06:06:42.254Z,34.30
2022-11-15T06:09:49.095Z,30.15
2022-11-15T06:12:58.121Z,37.07
2022-11-15T06:16:04.964Z,38.40
2022-11-15T06:19:05.209Z,39.50
2022-11-15T06:22:11.949Z,50.75
2022-11-15T06:25:12.433Z,39.03
2022-11-15T06:28:20.025Z,33.95
2022-11-15T06:31:21.236Z,35.67
2022-11-15T06:34:27.946Z,34.58
2022-11-15T06:37:29.240Z,40.15
2022-11-15T06:40:36.947Z,35.70
2022-11-15T06:43:38.732Z,35.03
2022-11-15T06:46:40.047Z,41.53
2022-11-15T06:49:40.314Z,42.83
2022-11-15T06:52:46.941Z,43.63
2022-11-15T06:55:55.683Z,49.95
2022-11-15T06:59:02.944Z,49.15
2022-11-15T07:02:09.952Z,55.33
2022-11-15T07:05:10.327Z,51.38
2022-11-15T07:08:18.050Z,53.30
2022-11-15T07:11:25.016Z,50.83
2022-11-15T07:14:32.966Z,47.83
2022-11-15T07:17:41.047Z,59.15
2022-11-15T07:20:48.967Z,44.92
2022-11-15T07:23:56.946Z,50.38
2022-11-15T07:26:57.325Z,62.08
2022-11-15T07:30:04.954Z,53.20
2022-11-15T07:33:07.326Z,45.92
2022-11-15T07:36:16.046Z,51.97
2022-11-15T07:39:17.303Z,52.65
2022-11-15T07:42:43.089Z,47.72
2022-11-15T07:45:49.315Z,41.25
2022-11-15T07:48:57.051Z,43.10
2022-11-15T07:51:57.301Z,47.92
2022-11-15T07:55:04.033Z,40.95
2022-11-15T07:58:15.352Z,38.38
2022-11-15T08:01:22.040Z,35.83
2022-11-15T08:04:23.352Z,46.58
2022-11-15T08:07:30.031Z,48.20
2022-11-15T08:10:30.295Z,44.20
2022-11-15T08:13:38.956Z,42.60
2022-11-15T08:16:47.034Z,41.90
2022-11-15T08:20:00.890Z,43.30
2022-11-15T08:23:16.034Z,36.55
2022-11-15T08:26:16.632Z,42.67
2022-11-15T08:29:24.021Z,45.97
2022-11-15T08:32:24.293Z,47.70
2022-11-15T08:35:32.021Z,45.03
2022-11-15T08:38:32.820Z,50.35
2022-11-15T08:41:46.946Z,47.05
2022-11-15T08:47:54.771Z,45.08
2022-11-15T08:51:04.035Z,44.40
2022-11-15T08:54:04.305Z,46.58
2022-11-15T08:57:11.944Z,43.60
2022-11-15T09:00:21.098Z,51.65
2022-11-15T09:03:28.922Z,46.22
2022-11-15T09:06:40.838Z,46.97
2022-11-15T09:09:50.092Z,54.58
2022-11-15T09:12:51.364Z,51.03
2022-11-15T09:15:58.035Z,47.22
2022-11-15T09:18:58.397Z,43.22
2022-11-15T09:22:05.048Z,39.47
2022-11-15T09:25:11.952Z,42.25
2022-11-15T09:28:19.028Z,34.58
2022-11-15T09:31:21.126Z,40.38
2022-11-15T09:34:29.958Z,40.83
2022-11-15T09:37:30.455Z,38.22
2022-11-15T09:40:39.029Z,35.63
2022-11-15T09:44:28.055Z,37.85
2022-11-15T09:47:42.959Z,42.22
2022-11-15T09:50:57.023Z,34.95
2022-11-15T09:57:02.319Z,38.50
2022-11-15T10:00:43.899Z,40.65
2022-11-15T10:03:47.953Z,33.88
2022-11-15T10:06:30.403Z,40.75
2022-11-15T10:09:56.959Z,37.35
2022-11-15T10:12:39.646Z,33.88
2022-11-15T10:15:32.357Z,35.30
2022-11-15T10:18:24.160Z,35.30
2022-11-15T10:21:28.101Z,31.38
2022-11-15T10:24:14.864Z,36.33
2022-11-15T10:27:05.075Z,37.20
2022-11-15T10:29:58.334Z,35.75
2022-11-15T10:32:44.945Z,34.27
2022-11-15T10:35:28.726Z,29.10
2022-11-15T10:38:26.038Z,29.20
2022-11-15T10:41:18.017Z,30.55
2022-11-15T10:44:18.329Z,34.38
2022-11-15T10:47:06.949Z,31.13
2022-11-15T10:50:17.118Z,31.10
2022-11-15T10:53:06.926Z,34.00
2022-11-15T10:56:01.951Z,28.40
2022-11-15T10:58:58.922Z,33.95
2022-11-15T11:01:55.361Z,33.38
2022-11-15T11:04:58.929Z,34.35
2022-11-15T11:07:43.285Z,31.88
2022-11-15T11:13:39.363Z,24.35
2022-11-15T11:16:57.957Z,27.50
2022-11-15T11:19:57.008Z,28.17
2022-11-15T11:23:06.400Z,25.67
2022-11-15T11:26:24.915Z,26.70
2022-11-15T11:29:51.155Z,28.00
2022-11-15T11:33:04.028Z,27.23
2022-11-15T11:36:06.311Z,26.60
2022-11-15T11:39:25.928Z,32.30
2022-11-15T11:42:40.959Z,27.75
2022-11-15T11:45:23.315Z,22.65
2022-11-15T11:48:36.032Z,24.95
2022-11-15T11:51:25.360Z,28.52
2022-11-15T11:54:29.085Z,33.60
2022-11-15T11:57:20.474Z,31.67
2022-11-15T12:00:23.064Z,32.80
2022-11-15T12:03:11.382Z,27.17
2022-11-15T12:06:06.014Z,30.38
2022-11-15T12:09:09.622Z,27.55
2022-11-15T12:12:07.020Z,34.03
2022-11-15T12:15:00.303Z,39.97
2022-11-15T12:17:50.933Z,35.28
2022-11-15T12:20:37.097Z,33.30
2022-11-15T12:23:41.307Z,41.65
2022-11-15T12:26:36.953Z,40.15
2022-11-15T12:29:35.498Z,41.13
2022-11-15T12:32:53.924Z,44.55
2022-11-15T12:35:51.292Z,45.42
2022-11-15T12:39:12.026Z,47.72
2022-11-15T12:42:06.347Z,55.00
2022-11-15T12:44:48.080Z,50.55
2022-11-15T12:47:30.259Z,60.70
2022-11-15T12:50:20.026Z,71.50
2022-11-15T12:53:26.722Z,63.33
2022-11-15T12:56:28.008Z,47.97
2022-11-15T12:59:10.258Z,48.15
2022-11-15T13:01:58.938Z,43.08
2022-11-15T13:04:47.308Z,50.65
2022-11-15T13:07:52.012Z,42.20
2022-11-15T13:10:42.899Z,42.00
2022-11-15T13:14:03.020Z,38.42
2022-11-15T13:16:52.988Z,37.83
2022-11-15T13:19:35.310Z,44.10
2022-11-15T13:22:42.001Z,43.20
2022-11-15T13:25:35.301Z,38.38
2022-11-15T13:28:24.005Z,35.42
2022-11-15T13:31:16.052Z,42.90
2022-11-15T13:34:23.042Z,39.00
2022-11-15T13:37:21.911Z,45.45
2022-11-15T13:40:28.995Z,42.97
2022-11-15T13:43:32.490Z,54.80
2022-11-15T13:46:33.027Z,41.78
2022-11-15T13:49:25.014Z,50.00
2022-11-15T13:52:18.515Z,47.35
2022-11-15T13:55:17.918Z,61.27
2022-11-15T13:58:14.629Z,57.00
2022-11-15T14:01:07.009Z,62.38
2022-11-15T14:04:05.363Z,63.13
2022-11-15T14:06:56.982Z,86.70
2022-11-15T14:09:48.393Z,97.53
2022-11-15T14:12:45.010Z,109.05
2022-11-15T14:15:42.291Z,115.03
2022-11-15T14:18:49.013Z,113.78
2022-11-15T14:21:45.854Z,107.00
2022-11-15T14:24:42.912Z,107.60
2022-11-15T14:27:39.902Z,90.35
2022-11-15T14:30:28.934Z,92.80
2022-11-15T14:33:33.009Z,77.53
2022-11-15T14:36:28.008Z,85.68
2022-11-15T14:39:12.974Z,81.18
2022-11-15T14:42:02.007Z,75.10
2022-11-15T14:44:51.002Z,80.68
2022-11-15T14:47:39.279Z,65.68
2022-11-15T14:50:27.089Z,65.93
2022-11-15T14:53:16.794Z,68.15
2022-11-15T14:56:00.021Z,66.70
2022-11-15T14:58:49.284Z,63.70
2022-11-15T15:01:35.005Z,65.90
2022-11-15T15:04:17.209Z,75.03
2022-11-15T15:07:05.990Z,66.63
2022-11-15T15:10:06.730Z,76.10
2022-11-15T15:12:58.325Z,70.75
2022-11-15T15:15:46.939Z,73.65
2022-11-15T15:18:29.450Z,68.22
2022-11-15T15:21:37.596Z,72.85
2022-11-15T15:24:20.386Z,73.13
2022-11-15T15:27:09.016Z,72.85
2022-11-15T15:29:51.237Z,71.80
2022-11-15T15:32:40.021Z,73.32
2022-11-15T15:35:23.077Z,71.78
2022-11-15T15:38:12.945Z,72.57
2022-11-15T15:41:02.586Z,71.03
2022-11-15T15:43:46.497Z,79.82
2022-11-15T15:46:38.310Z,70.57
2022-11-15T15:49:21.030Z,75.57
2022-11-15T15:52:10.049Z,78.13
2022-11-15T15:54:52.290Z,81.50
2022-11-15T15:57:43.251Z,89.72
2022-11-15T16:00:26.838Z,97.50
2022-11-15T16:03:15.974Z,102.63
2022-11-15T16:06:01.939Z,99.45
2022-11-15T16:09:13.370Z,94.82
2022-11-15T16:11:54.422Z,89.18
2022-11-15T16:14:46.026Z,95.55
2022-11-15T16:17:34.408Z,91.72
2022-11-15T16:20:47.006Z,91.03
2022-11-15T16:23:36.425Z,90.65
2022-11-15T16:26:36.026Z,83.45
2022-11-15T16:29:27.780Z,95.57
2022-11-15T16:32:17.085Z,89.97
2022-11-15T16:35:06.987Z,80.45
2022-11-15T16:37:58.006Z,93.07
2022-11-15T16:40:40.391Z,86.63
2022-11-15T16:43:28.999Z,89.60
2022-11-15T16:46:30.016Z,85.63
2022-11-15T16:49:12.454Z,82.88
2022-11-15T16:52:00.973Z,84.50
2022-11-15T16:54:43.279Z,76.18
2022-11-15T16:57:31.989Z,77.03
2022-11-15T17:00:17.752Z,73.63
2022-11-15T17:03:06.902Z,76.20
2022-11-15T17:05:49.436Z,70.55
2022-11-15T17:08:37.988Z,73.80
2022-11-15T17:11:25.217Z,70.32
2022-11-15T17:14:13.999Z,72.78
2022-11-15T17:16:56.414Z,67.45
2022-11-15T17:19:44.976Z,67.97
2022-11-15T17:22:39.841Z,78.47
2022-11-15T17:25:28.969Z,72.60
2022-11-15T17:28:17.998Z,78.75
2022-11-15T17:31:01.010Z,74.32
2022-11-15T17:33:50.987Z,67.10
2022-11-15T17:36:40.496Z,81.35
2022-11-15T17:39:23.014Z,76.03
2022-11-15T17:42:05.475Z,75.25
2022-11-15T17:44:53.965Z,78.53
2022-11-15T17:47:36.291Z,78.53
2022-11-15T17:50:25.967Z,66.15
2022-11-15T17:53:08.294Z,85.65
2022-11-15T17:55:57.025Z,79.00
2022-11-15T17:58:46.465Z,79.55
2022-11-15T18:01:32.044Z,85.97
2022-11-15T18:04:22.946Z,80.80
2022-11-15T18:07:05.531Z,86.70
2022-11-15T18:09:53.991Z,86.53
2022-11-15T18:12:36.259Z,88.30
2022-11-15T18:15:26.962Z,88.70
2022-11-15T18:18:16.027Z,92.90
2022-11-15T18:21:11.992Z,89.43
2022-11-15T18:24:09.751Z,83.63
2022-11-15T18:26:52.970Z,88.38
2022-11-15T18:29:42.395Z,89.38
2022-11-15T18:32:24.988Z,92.28
2022-11-15T18:35:14.625Z,84.60
2022-11-15T18:37:56.988Z,87.30
2022-11-15T18:40:46.418Z,104.18
2022-11-15T18:43:27.956Z,95.68
2022-11-15T18:46:16.384Z,96.57
2022-11-15T18:49:06.964Z,95.65
2022-11-15T18:51:57.159Z,92.45
2022-11-15T18:54:38.954Z,97.63
2022-11-15T18:57:21.207Z,106.65
2022-11-15T19:00:11.324Z,105.07
2022-11-15T19:03:02.437Z,108.22
2022-11-15T19:05:46.477Z,107.85
2022-11-15T19:08:31.683Z,112.22
2022-11-15T19:11:46.887Z,111.53
2022-11-15T19:14:36.957Z,109.13
2022-11-15T19:17:19.402Z,130.15
2022-11-15T19:20:07.961Z,128.90
2022-11-15T19:22:56.263Z,122.35
2022-11-15T19:25:37.974Z,127.18
2022-11-15T19:28:20.120Z,112.05
2022-11-15T19:31:09.969Z,125.28
2022-11-15T19:33:54.847Z,119.18
2022-11-15T19:36:48.630Z,115.10
2022-11-15T19:39:31.229Z,127.25
2022-11-15T19:42:19.976Z,115.82
2022-11-15T19:45:02.126Z,130.75
2022-11-15T19:47:51.001Z,124.68
2022-11-15T19:50:36.217Z,129.45
2022-11-15T19:53:24.960Z,134.18
2022-11-15T19:56:23.916Z,122.47
2022-11-15T19:59:12.948Z,126.30
2022-11-15T20:01:55.349Z,146.75
2022-11-15T20:04:43.933Z,157.20
2022-11-15T20:07:32.254Z,126.78
2022-11-15T20:10:18.144Z,119.53
2022-11-15T20:13:09.932Z,125.85
2022-11-15T20:15:52.259Z,133.70
2022-11-15T20:18:40.955Z,138.50
2022-11-15T20:21:24.303Z,136.93
2022-11-15T20:24:13.965Z,139.05
2022-11-15T20:26:56.290Z,141.00
2022-11-15T20:29:45.124Z,140.70
2022-11-15T20:32:27.227Z,147.57
2022-11-15T20:35:15.967Z,150.02
2022-11-15T20:37:58.217Z,153.50
2022-11-15T20:40:49.467Z,161.88
2022-11-15T20:43:37.928Z,143.25
2022-11-15T20:46:28.682Z,165.48
2022-11-15T20:49:11.231Z,166.30
2022-11-15T20:51:59.931Z,147.30
2022-11-15T20:54:43.286Z,162.52
2022-11-15T20:57:32.596Z,164.80
2022-11-15T21:00:16.271Z,160.65
2022-11-15T21:03:04.976Z,159.57
2022-11-15T21:05:49.221Z,168.70
2022-11-15T21:08:57.943Z,170.00
2022-11-15T21:12:04.929Z,165.07
2022-11-15T21:14:54.248Z,172.95
2022-11-15T21:17:36.866Z,164.85
2022-11-15T21:20:26.444Z,159.98
2022-11-15T21:23:14.865Z,164.48
2022-11-15T21:25:59.271Z,166.02
2022-11-15T21:28:47.945Z,158.25
2022-11-15T21:31:30.451Z,153.32
2022-11-15T21:34:18.960Z,155.77
2022-11-15T21:37:01.274Z,150.07
2022-11-15T21:39:49.870Z,147.98
2022-11-15T21:42:38.832Z,153.73
2022-11-15T21:45:28.794Z,135.88
2022-11-15T21:48:12.238Z,134.95
2022-11-15T21:51:08.979Z,129.07
2022-11-15T21:53:51.221Z,128.30
2022-11-15T21:56:40.200Z,104.97
2022-11-15T21:59:22.301Z,93.05
2022-11-15T22:02:22.943Z,89.00
2022-11-15T22:05:05.223Z,96.05
2022-11-15T22:07:53.870Z,94.32
2022-11-15T22:10:36.265Z,85.80
2022-11-15T22:13:24.919Z,82.72
2022-11-15T22:16:07.235Z,78.85
2022-11-15T22:18:55.868Z,82.35
2022-11-15T22:21:47.829Z,84.35
2022-11-15T22:24:42.823Z,80.53
2022-11-15T22:27:31.934Z,84.03
2022-11-15T22:30:15.369Z,79.95
2022-11-15T22:33:04.869Z,86.28
2022-11-15T22:35:48.317Z,81.60
2022-11-15T22:38:37.179Z,82.55
2022-11-15T22:41:19.281Z,82.82
2022-11-15T22:44:07.927Z,89.55
2022-11-15T22:46:57.014Z,87.15
2022-11-15T22:49:39.294Z,80.82
2022-11-15T22:52:27.918Z,79.05
2022-11-15T22:55:10.582Z,78.20
2022-11-15T22:57:59.939Z,76.32
2022-11-15T23:00:42.202Z,79.07
2022-11-15T23:03:30.989Z,76.68
2022-11-15T23:06:19.219Z,86.38
2022-11-15T23:09:04.942Z,90.90
2022-11-15T23:12:05.151Z,91.32
2022-11-15T23:14:53.857Z,102.30
2022-11-15T23:17:42.859Z,91.63
2022-11-15T23:20:42.508Z,82.57
2022-11-15T23:23:32.925Z,84.18
2022-11-15T23:26:22.992Z,75.20
2022-11-15T23:29:06.370Z,70.18
2022-11-15T23:32:12.954Z,74.20
2022-11-15T23:34:55.127Z,77.75
2022-11-15T23:37:43.879Z,75.03
2022-11-15T23:40:26.239Z,66.63
2022-11-15T23:43:15.016Z,71.00
2022-11-15T23:46:04.262Z,80.25
2022-11-15T23:48:46.986Z,70.80
2022-11-15T23:51:35.292Z,73.10
2022-11-15T23:54:17.842Z,82.28
2022-11-15T23:57:08.135Z,80.35
2022-11-15T23:59:53.921Z,76.78
